Aviation Digital Data Service (ADDS)

Output produced by TAFs form (1329 UTC 25 September 2017)
found at http://www.aviationweather.gov/adds/tafs/
 
METAR text: OPRN 251330Z 23006KT 4000 HZ SCT040 31/18 Q1007.0/29.74
Conditions at: OPRN (ISLAMABAD (CIV/M, PK) observed 1330 UTC 25 September 2017
Temperature: 31.0°C (88°F)
Dewpoint: 18.0°C (64°F) [RH = 46%]
Pressure (altimeter): missing
Winds: from the SW (230 degrees) at 7 MPH (6 knots; 3.1 m/s)
Visibility: 2.49 miles (4.01 km)
Ceiling: at least 12,000 feet AGL
Clouds: scattered clouds at 4000 feet AGL
Weather: HZ  (haze)

Forecast for: OPRN (ISLAMABAD (CIV/M, PK)
Text: TAF OPRN 250930Z 2512/2618 26010KT 4000 HZ SCT030
Forecast period: 1200 UTC 25 September 2017 to 1800 UTC 26 September 2017
Forecast type: FROM: standard forecast or significant change
Winds: from the W (260 degrees) at 12 MPH (10 knots; 5.2 m/s)
Visibility: 2.49 miles (4.01 km)
Clouds: scattered clouds at 3000 feet AGL
Weather: HZ  (haze)
Text: TEMPO 2600/2604 13010KT 2000 BR FEW030
Forecast period: 0000 to 0400 UTC 26 September 2017
Forecast type: TEMPORARY: The following changes expected for less than half the time period
Winds: from the SE (130 degrees) at 12 MPH (10 knots; 5.2 m/s)
Visibility: 1.24 miles (2.00 km)
Clouds: few clouds at 3000 feet AGL
Weather: BR  (mist)